createdAt,value
2018-01-15T00:02:19.193Z,82.91
2018-01-15T00:04:46.874Z,82.96
2018-01-15T00:07:16.753Z,82.82
2018-01-15T00:09:44.426Z,82.83
2018-01-15T00:12:12.042Z,82.61
2018-01-15T00:14:39.785Z,82.85
2018-01-15T00:17:07.492Z,82.98
2018-01-15T00:19:35.170Z,83.02
2018-01-15T00:22:02.863Z,82.84
2018-01-15T00:24:30.575Z,82.89
2018-01-15T00:26:58.290Z,82.94
2018-01-15T00:29:25.995Z,83.06
2018-01-15T00:31:53.666Z,82.98
2018-01-15T00:34:21.357Z,83.13
2018-01-15T00:36:49.057Z,82.90
2018-01-15T00:39:16.765Z,83.15
2018-01-15T00:41:44.432Z,82.74
2018-01-15T00:44:12.125Z,82.71
2018-01-15T00:46:39.794Z,82.83
2018-01-15T00:49:07.442Z,82.88
2018-01-15T00:51:35.117Z,82.85
2018-01-15T00:54:02.853Z,82.76
2018-01-15T00:56:30.531Z,82.58
2018-01-15T00:58:58.237Z,82.56
2018-01-15T01:01:25.912Z,82.44
2018-01-15T01:03:53.615Z,82.58
2018-01-15T01:06:21.310Z,82.70
2018-01-15T01:08:49.039Z,82.48
2018-01-15T01:11:16.720Z,82.66
2018-01-15T01:13:44.432Z,82.67
2018-01-15T01:16:12.121Z,82.58
2018-01-15T01:18:39.821Z,82.61
2018-01-15T01:21:07.549Z,82.90
2018-01-15T01:23:35.345Z,83.01
2018-01-15T01:26:03.036Z,83.26
2018-01-15T01:28:30.757Z,83.34
2018-01-15T01:30:58.442Z,83.32
2018-01-15T01:33:26.153Z,83.23
2018-01-15T01:35:53.838Z,83.02
2018-01-15T01:38:21.546Z,82.99
2018-01-15T01:40:49.261Z,83.09
2018-01-15T01:43:16.957Z,83.03
2018-01-15T01:45:44.698Z,83.24
2018-01-15T01:48:12.429Z,83.34
2018-01-15T01:50:40.117Z,83.52
2018-01-15T01:53:07.811Z,83.72
2018-01-15T01:55:35.481Z,83.84
2018-01-15T01:58:03.189Z,83.85
2018-01-15T02:00:30.873Z,83.61
2018-01-15T02:02:58.594Z,83.40
2018-01-15T02:05:26.259Z,83.48
2018-01-15T02:07:54.041Z,83.70
2018-01-15T02:10:21.726Z,83.79
2018-01-15T02:12:49.481Z,83.48
2018-01-15T02:15:17.158Z,83.21
2018-01-15T02:17:44.857Z,83.33
2018-01-15T02:20:12.521Z,83.29
2018-01-15T02:22:40.255Z,83.29
2018-01-15T02:25:07.913Z,83.41
2018-01-15T02:27:35.614Z,83.43
2018-01-15T02:30:03.204Z,83.06
2018-01-15T02:32:30.909Z,83.23
2018-01-15T02:34:58.586Z,82.97
2018-01-15T02:37:26.290Z,82.91
2018-01-15T02:39:53.966Z,83.14
2018-01-15T02:42:21.698Z,82.83
2018-01-15T02:44:49.378Z,82.89
2018-01-15T02:47:17.126Z,83.02
2018-01-15T02:49:44.794Z,83.10
2018-01-15T02:52:12.525Z,83.01
2018-01-15T02:54:40.218Z,83.05
2018-01-15T02:57:07.843Z,82.99
2018-01-15T02:59:35.530Z,82.66
2018-01-15T03:02:03.226Z,82.69
2018-01-15T03:04:30.890Z,82.72
2018-01-15T03:06:58.529Z,82.77
2018-01-15T03:09:26.221Z,82.85
2018-01-15T03:11:53.842Z,82.70
2018-01-15T03:14:21.537Z,83.16
2018-01-15T03:16:49.297Z,82.99
2018-01-15T03:19:16.985Z,82.77
2018-01-15T03:21:44.690Z,82.76
2018-01-15T03:24:12.361Z,82.97
2018-01-15T03:26:40.078Z,82.84
2018-01-15T03:29:07.788Z,82.77
2018-01-15T03:31:35.530Z,82.77
2018-01-15T03:34:03.194Z,82.93
2018-01-15T03:36:30.893Z,82.64
2018-01-15T03:38:58.597Z,82.82
2018-01-15T03:41:26.304Z,82.57
2018-01-15T03:43:53.981Z,82.83
2018-01-15T03:46:21.603Z,82.57
2018-01-15T03:48:49.293Z,82.54
2018-01-15T03:51:16.916Z,82.67
2018-01-15T03:53:44.617Z,82.89
2018-01-15T03:56:12.286Z,83.03
2018-01-15T03:58:39.957Z,83.29
2018-01-15T04:01:07.677Z,82.92
2018-01-15T04:03:35.378Z,82.98
2018-01-15T04:06:03.066Z,82.96
2018-01-15T04:08:30.685Z,82.61
2018-01-15T04:10:58.292Z,82.72
2018-01-15T04:13:25.982Z,82.40
2018-01-15T04:15:53.622Z,82.27
2018-01-15T04:18:21.305Z,82.62
2018-01-15T04:20:48.958Z,82.73
2018-01-15T04:23:16.642Z,82.58
2018-01-15T04:25:44.354Z,82.26
2018-01-15T04:28:11.941Z,82.36
2018-01-15T04:30:39.561Z,82.04
2018-01-15T04:33:07.166Z,82.16
2018-01-15T04:35:34.786Z,82.19
2018-01-15T04:38:02.369Z,82.15
2018-01-15T04:40:30.012Z,81.91
2018-01-15T04:42:57.603Z,81.83
2018-01-15T04:45:25.218Z,81.89
2018-01-15T04:47:52.814Z,81.92
2018-01-15T04:50:20.431Z,82.28
2018-01-15T04:52:48.023Z,82.71
2018-01-15T04:55:15.753Z,82.83
2018-01-15T04:57:43.360Z,82.99
2018-01-15T05:00:11.030Z,83.13
2018-01-15T05:02:38.655Z,83.42
2018-01-15T05:05:06.254Z,83.54
2018-01-15T05:07:34.010Z,83.76
2018-01-15T05:10:01.688Z,83.81
2018-01-15T05:12:29.386Z,84.22
2018-01-15T05:14:56.985Z,84.16
2018-01-15T05:17:24.605Z,84.48
2018-01-15T05:19:52.211Z,84.49
2018-01-15T05:22:19.906Z,84.59
2018-01-15T05:24:47.571Z,84.77
2018-01-15T05:27:15.197Z,84.73
2018-01-15T05:29:42.858Z,84.87
2018-01-15T05:32:10.515Z,84.75
2018-01-15T05:34:38.130Z,84.98
2018-01-15T05:37:05.759Z,85.28
2018-01-15T05:39:33.434Z,85.27
2018-01-15T05:42:01.122Z,85.46
2018-01-15T05:44:28.800Z,85.54
2018-01-15T05:46:56.430Z,85.75
2018-01-15T05:49:24.097Z,85.78
2018-01-15T05:51:51.794Z,85.87
2018-01-15T05:54:19.461Z,86.07
2018-01-15T05:56:47.203Z,86.21
2018-01-15T05:59:14.894Z,86.18
2018-01-15T06:01:42.513Z,86.30
2018-01-15T06:04:10.242Z,86.38
2018-01-15T06:06:37.941Z,86.45
2018-01-15T06:09:05.534Z,86.73
2018-01-15T06:11:33.255Z,86.68
2018-01-15T06:14:00.934Z,86.90
2018-01-15T06:16:28.629Z,87.12
2018-01-15T06:18:56.221Z,87.30
2018-01-15T06:21:23.965Z,87.41
2018-01-15T06:23:51.637Z,87.50
2018-01-15T06:26:19.412Z,87.54
2018-01-15T06:28:47.113Z,87.33
2018-01-15T06:31:14.737Z,87.24
2018-01-15T06:33:42.421Z,87.16
2018-01-15T06:36:10.145Z,87.15
2018-01-15T06:38:37.833Z,87.35
2018-01-15T06:41:05.581Z,87.35
2018-01-15T06:43:33.259Z,87.24
2018-01-15T06:46:00.961Z,87.27
2018-01-15T06:48:28.641Z,87.53
2018-01-15T06:50:56.326Z,87.54
2018-01-15T06:53:24.054Z,87.75
2018-01-15T06:55:51.767Z,87.88
2018-01-15T06:58:19.435Z,87.77
2018-01-15T07:00:47.133Z,87.83
2018-01-15T07:03:14.761Z,88.15
2018-01-15T07:05:42.461Z,88.08
2018-01-15T07:08:10.148Z,88.12
2018-01-15T07:10:37.865Z,88.20
2018-01-15T07:13:05.463Z,88.05
2018-01-15T07:15:33.162Z,88.21
2018-01-15T07:18:00.808Z,88.24
2018-01-15T07:20:28.509Z,88.25
2018-01-15T07:22:56.101Z,88.40
2018-01-15T07:25:23.726Z,88.30
2018-01-15T07:27:51.308Z,88.41
2018-01-15T07:30:18.918Z,88.26
2018-01-15T07:32:46.618Z,88.38
2018-01-15T07:35:14.312Z,88.31
2018-01-15T07:37:41.982Z,88.35
2018-01-15T07:40:09.626Z,88.24
2018-01-15T07:42:37.225Z,88.16
2018-01-15T07:45:04.917Z,88.38
2018-01-15T07:47:32.514Z,88.50
2018-01-15T07:50:00.204Z,88.43
2018-01-15T07:52:27.925Z,88.44
2018-01-15T07:54:56.081Z,88.31
2018-01-15T07:57:23.750Z,88.50
2018-01-15T07:59:51.369Z,88.57
2018-01-15T08:02:18.985Z,88.79
2018-01-15T08:04:46.614Z,88.98
2018-01-15T08:07:14.281Z,88.86
2018-01-15T08:09:41.920Z,88.82
2018-01-15T08:12:09.562Z,88.62
2018-01-15T08:14:37.198Z,88.32
2018-01-15T08:17:04.861Z,88.43
2018-01-15T08:19:32.554Z,88.25
2018-01-15T08:22:00.211Z,88.35
2018-01-15T08:24:27.878Z,88.08
2018-01-15T08:26:55.473Z,88.25
2018-01-15T08:29:23.098Z,87.94
2018-01-15T08:31:50.777Z,88.12
2018-01-15T08:34:18.374Z,88.13
2018-01-15T08:36:46.018Z,88.20
2018-01-15T08:39:13.617Z,88.07
2018-01-15T08:41:41.251Z,88.05
2018-01-15T08:44:08.842Z,87.97
2018-01-15T08:46:36.461Z,88.12
2018-01-15T08:49:04.076Z,88.20
2018-01-15T08:51:31.726Z,87.91
2018-01-15T08:53:59.400Z,87.71
2018-01-15T08:56:27.021Z,87.80
2018-01-15T08:58:54.661Z,87.54
2018-01-15T09:01:22.257Z,87.83
2018-01-15T09:03:49.943Z,87.51
2018-01-15T09:06:17.537Z,87.43
2018-01-15T09:08:45.178Z,87.32
2018-01-15T09:11:12.770Z,87.48
2018-01-15T09:13:40.391Z,87.60
2018-01-15T09:16:08.007Z,87.49
2018-01-15T09:18:35.638Z,87.34
2018-01-15T09:21:03.237Z,87.04
2018-01-15T09:23:30.936Z,87.09
2018-01-15T09:25:58.562Z,86.79
2018-01-15T09:28:26.173Z,86.81
2018-01-15T09:30:53.766Z,86.91
2018-01-15T09:33:21.467Z,86.98
2018-01-15T09:35:49.056Z,86.77
2018-01-15T09:38:16.691Z,86.59
2018-01-15T09:40:44.283Z,86.57
2018-01-15T09:43:11.988Z,86.70
2018-01-15T09:45:39.616Z,86.77
2018-01-15T09:48:07.242Z,86.71
2018-01-15T09:50:34.870Z,86.53
2018-01-15T09:53:02.506Z,86.22
2018-01-15T09:55:30.130Z,85.97
2018-01-15T09:57:57.847Z,85.97
2018-01-15T10:00:25.445Z,86.19
2018-01-15T10:02:53.077Z,85.91
2018-01-15T10:05:20.674Z,86.06
2018-01-15T10:07:48.314Z,86.21
2018-01-15T10:10:15.911Z,85.92
2018-01-15T10:12:43.541Z,85.85
2018-01-15T10:15:11.130Z,86.09
2018-01-15T10:17:38.752Z,85.57
2018-01-15T10:20:06.373Z,85.67
2018-01-15T10:22:34.002Z,85.96
2018-01-15T10:25:01.633Z,85.79
2018-01-15T10:27:29.257Z,85.95
2018-01-15T10:29:56.853Z,85.62
2018-01-15T10:32:24.484Z,85.82
2018-01-15T10:34:52.130Z,86.21
2018-01-15T10:37:19.765Z,86.13
2018-01-15T10:39:47.350Z,86.03
2018-01-15T10:42:14.974Z,85.89
2018-01-15T10:44:42.572Z,85.83
2018-01-15T10:47:10.194Z,85.61
2018-01-15T10:49:37.786Z,85.75
2018-01-15T10:52:05.473Z,85.51
2018-01-15T10:54:33.081Z,85.49
2018-01-15T10:57:00.697Z,85.78
2018-01-15T10:59:29.833Z,85.60
2018-01-15T11:01:57.613Z,85.86
2018-01-15T11:04:25.207Z,85.77
2018-01-15T11:06:52.845Z,85.61
2018-01-15T11:09:20.430Z,85.51
2018-01-15T11:11:48.097Z,85.56
2018-01-15T11:14:15.725Z,85.37
2018-01-15T11:16:43.302Z,85.45
2018-01-15T11:19:10.894Z,85.29
2018-01-15T11:21:38.521Z,85.36
2018-01-15T11:24:06.102Z,85.13
2018-01-15T11:26:33.726Z,84.84
2018-01-15T11:29:01.329Z,84.99
2018-01-15T11:31:28.954Z,85.05
2018-01-15T11:33:56.552Z,85.36
2018-01-15T11:36:24.193Z,85.43
2018-01-15T11:38:51.799Z,85.54
2018-01-15T11:41:19.418Z,85.50
2018-01-15T11:43:47.007Z,85.48
2018-01-15T11:46:14.601Z,85.83
2018-01-15T11:48:42.239Z,86.00
2018-01-15T11:51:09.965Z,86.20
2018-01-15T11:53:37.612Z,86.34
2018-01-15T11:56:05.234Z,86.18
2018-01-15T11:58:32.817Z,86.26
2018-01-15T12:01:00.434Z,86.10
2018-01-15T12:03:28.133Z,86.02
2018-01-15T12:05:55.759Z,85.96
2018-01-15T12:08:23.344Z,86.10
2018-01-15T12:10:50.988Z,86.31
2018-01-15T12:13:18.577Z,86.41
2018-01-15T12:15:46.203Z,86.50
2018-01-15T12:18:13.815Z,86.32
2018-01-15T12:20:41.432Z,86.27
2018-01-15T12:23:09.026Z,86.52
2018-01-15T12:25:36.652Z,86.74
2018-01-15T12:28:04.242Z,86.72
2018-01-15T12:30:31.888Z,87.72
2018-01-15T12:32:59.477Z,87.47
2018-01-15T12:35:27.116Z,88.44
2018-01-15T12:37:54.725Z,88.59
2018-01-15T12:40:22.330Z,88.36
2018-01-15T12:42:50.106Z,88.27
2018-01-15T12:45:17.744Z,87.70
2018-01-15T12:47:45.317Z,87.54
2018-01-15T12:50:12.922Z,86.99
2018-01-15T12:52:40.561Z,86.90
2018-01-15T12:55:08.183Z,86.50
2018-01-15T12:57:35.781Z,86.22
2018-01-15T13:00:03.420Z,85.86
2018-01-15T13:02:30.997Z,85.79
2018-01-15T13:04:58.605Z,86.47
2018-01-15T13:07:37.837Z,87.09
2018-01-15T13:10:05.456Z,87.34
2018-01-15T13:12:33.058Z,87.61
2018-01-15T13:15:00.678Z,87.29
2018-01-15T13:17:28.252Z,88.10
2018-01-15T13:19:55.941Z,88.26
2018-01-15T13:22:23.530Z,87.99
2018-01-15T13:24:51.161Z,88.09
2018-01-15T13:27:18.798Z,88.85
2018-01-15T13:29:46.417Z,89.40
2018-01-15T13:32:14.010Z,89.44
2018-01-15T13:34:41.644Z,89.62
2018-01-15T13:37:09.209Z,89.18
2018-01-15T13:39:36.881Z,89.60
2018-01-15T13:42:04.485Z,88.82
2018-01-15T13:44:32.134Z,88.72
2018-01-15T13:46:59.684Z,88.20
2018-01-15T13:49:27.395Z,88.63
2018-01-15T13:51:54.982Z,88.88
2018-01-15T13:54:22.599Z,89.78
2018-01-15T13:56:50.178Z,90.86
2018-01-15T13:59:17.803Z,91.22
2018-01-15T14:01:45.403Z,91.49
2018-01-15T14:04:13.021Z,92.49
2018-01-15T14:06:40.621Z,92.66
2018-01-15T14:09:08.257Z,93.21
2018-01-15T14:11:35.927Z,93.62
2018-01-15T14:14:03.518Z,94.23
2018-01-15T14:16:31.121Z,93.71
2018-01-15T14:18:58.747Z,93.78
2018-01-15T14:21:26.337Z,93.64
2018-01-15T14:23:53.940Z,93.19
2018-01-15T14:26:21.525Z,93.03
2018-01-15T14:28:49.134Z,93.10
2018-01-15T14:31:16.710Z,92.73
2018-01-15T14:33:44.321Z,93.41
2018-01-15T14:36:11.941Z,93.46
2018-01-15T14:38:39.560Z,94.09
2018-01-15T14:41:07.137Z,94.87
2018-01-15T14:43:34.762Z,95.65
2018-01-15T14:46:02.354Z,96.72
2018-01-15T14:48:30.028Z,96.97
2018-01-15T14:50:57.673Z,96.76
2018-01-15T14:53:25.322Z,97.21
2018-01-15T14:55:52.928Z,97.49
2018-01-15T14:58:20.535Z,97.75
2018-01-15T15:00:48.121Z,97.99
2018-01-15T15:03:15.815Z,98.35
2018-01-15T15:05:43.382Z,98.91
2018-01-15T15:08:11.006Z,99.04
2018-01-15T15:10:38.610Z,98.89
2018-01-15T15:13:06.225Z,98.92
2018-01-15T15:15:33.814Z,99.64
2018-01-15T15:18:01.526Z,99.86
2018-01-15T15:20:29.148Z,99.36
2018-01-15T15:22:56.777Z,98.58
2018-01-15T15:25:24.352Z,98.68
2018-01-15T15:27:51.984Z,98.74
2018-01-15T15:30:19.610Z,97.88
2018-01-15T15:32:47.295Z,97.66
2018-01-15T15:35:14.885Z,96.95
2018-01-15T15:37:42.509Z,96.82
2018-01-15T15:40:10.105Z,96.95
2018-01-15T15:42:37.735Z,97.08
2018-01-15T15:45:05.463Z,95.73
2018-01-15T15:47:33.035Z,94.80
2018-01-15T15:50:00.626Z,94.49
2018-01-15T15:52:28.235Z,94.48
2018-01-15T15:54:55.845Z,94.51
2018-01-15T15:57:23.452Z,94.68
2018-01-15T15:59:51.064Z,94.42
2018-01-15T16:02:18.695Z,93.99
2018-01-15T16:04:46.295Z,93.96
2018-01-15T16:07:14.747Z,92.79
2018-01-15T16:09:42.342Z,93.04
2018-01-15T16:12:09.954Z,92.97
2018-01-15T16:14:37.576Z,92.19
2018-01-15T16:17:05.215Z,92.07
2018-01-15T16:19:32.957Z,91.75
2018-01-15T16:22:12.248Z,91.39
2018-01-15T16:24:39.883Z,91.32
2018-01-15T16:27:07.494Z,91.69
2018-01-15T16:29:35.079Z,91.69
2018-01-15T16:32:02.699Z,92.01
2018-01-15T16:34:30.326Z,92.46
2018-01-15T16:36:57.948Z,92.77
2018-01-15T16:39:25.630Z,93.52
2018-01-15T16:41:53.293Z,93.82
2018-01-15T16:44:20.886Z,94.58
2018-01-15T16:46:48.506Z,94.01
2018-01-15T16:49:16.116Z,94.58
2018-01-15T16:51:43.837Z,94.38
2018-01-15T16:54:11.421Z,95.06
2018-01-15T16:56:39.119Z,95.47
2018-01-15T16:59:06.697Z,94.72
2018-01-15T17:01:34.281Z,94.73
2018-01-15T17:04:01.913Z,95.19
2018-01-15T17:06:29.510Z,94.49
2018-01-15T17:08:57.110Z,94.22
2018-01-15T17:11:24.686Z,94.53
2018-01-15T17:13:52.324Z,93.39
2018-01-15T17:16:19.909Z,94.93
2018-01-15T17:18:47.541Z,95.73
2018-01-15T17:21:15.120Z,94.88
2018-01-15T17:23:42.758Z,92.84
2018-01-15T17:26:10.364Z,93.95
2018-01-15T17:28:38.070Z,93.84
2018-01-15T17:31:05.645Z,94.00
2018-01-15T17:33:33.241Z,94.79
2018-01-15T17:36:00.830Z,94.46
2018-01-15T17:38:28.745Z,94.47
2018-01-15T17:40:56.367Z,95.15
2018-01-15T17:43:24.002Z,96.02
2018-01-15T17:45:51.597Z,95.35
2018-01-15T17:48:19.218Z,94.45
2018-01-15T17:50:46.853Z,94.71
2018-01-15T17:53:14.592Z,94.85
2018-01-15T17:55:42.173Z,95.56
2018-01-15T17:58:09.782Z,95.16
2018-01-15T18:00:37.454Z,95.42
2018-01-15T18:03:05.079Z,96.49
2018-01-15T18:05:32.666Z,95.86
2018-01-15T18:08:00.358Z,96.00
2018-01-15T18:10:27.923Z,95.28
2018-01-15T18:12:55.529Z,94.57
2018-01-15T18:15:23.119Z,93.26
2018-01-15T18:17:50.708Z,92.45
2018-01-15T18:20:18.296Z,92.76
2018-01-15T18:22:45.905Z,92.45
2018-01-15T18:25:13.506Z,90.75
2018-01-15T18:27:41.139Z,91.82
2018-01-15T18:30:08.727Z,91.46
2018-01-15T18:32:36.403Z,91.25
2018-01-15T18:35:03.974Z,89.95
2018-01-15T18:37:31.587Z,89.85
2018-01-15T18:39:59.194Z,89.19
2018-01-15T18:42:26.832Z,88.26
2018-01-15T18:44:54.413Z,88.56
2018-01-15T18:47:22.046Z,88.20
2018-01-15T18:49:49.697Z,87.49
2018-01-15T18:52:17.337Z,87.76
2018-01-15T18:54:44.996Z,87.39
2018-01-15T18:57:12.620Z,87.08
2018-01-15T18:59:40.212Z,86.35
2018-01-15T19:02:07.932Z,86.73
2018-01-15T19:04:35.538Z,86.92
2018-01-15T19:07:03.151Z,86.60
2018-01-15T19:09:30.753Z,86.13
2018-01-15T19:11:58.389Z,85.84
2018-01-15T19:14:26.010Z,85.68
2018-01-15T19:16:53.702Z,84.65
2018-01-15T19:19:21.397Z,84.50
2018-01-15T19:21:49.024Z,84.78
2018-01-15T19:24:16.611Z,85.16
2018-01-15T19:26:44.251Z,84.83
2018-01-15T19:29:11.880Z,84.51
2018-01-15T19:31:39.510Z,84.19
2018-01-15T19:34:07.102Z,84.77
2018-01-15T19:36:38.586Z,84.31
2018-01-15T19:39:06.246Z,84.74
2018-01-15T19:41:35.561Z,84.83
2018-01-15T19:44:08.521Z,84.08
2018-01-15T19:46:41.597Z,84.25
2018-01-15T19:49:14.662Z,84.23
2018-01-15T19:51:47.733Z,84.03
2018-01-15T19:54:20.870Z,83.66
2018-01-15T19:56:53.956Z,83.67
2018-01-15T19:59:27.322Z,83.89
2018-01-15T20:05:00.651Z,83.59
2018-01-15T20:07:34.055Z,83.84
2018-01-15T20:10:07.137Z,83.86
2018-01-15T20:12:34.749Z,83.61
2018-01-15T20:15:02.415Z,84.44
2018-01-15T20:17:30.024Z,84.08
2018-01-15T20:19:57.856Z,84.63
2018-01-15T20:22:25.446Z,85.56
2018-01-15T20:24:53.191Z,86.74
2018-01-15T20:27:20.770Z,86.88
2018-01-15T20:29:48.562Z,86.75
2018-01-15T20:32:16.187Z,87.92
2018-01-15T20:34:43.822Z,89.55
2018-01-15T20:37:11.426Z,89.76
2018-01-15T20:39:39.079Z,90.60
2018-01-15T20:42:06.702Z,92.40
2018-01-15T20:44:34.456Z,92.70
2018-01-15T20:47:02.042Z,93.32
2018-01-15T20:49:29.662Z,93.89
2018-01-15T20:51:57.246Z,93.82
2018-01-15T20:54:24.868Z,93.94
2018-01-15T20:56:52.466Z,94.64
2018-01-15T20:59:20.096Z,94.93
2018-01-15T21:01:47.724Z,95.08
2018-01-15T21:04:15.310Z,94.67
2018-01-15T21:06:42.946Z,94.78
2018-01-15T21:09:10.554Z,95.02
2018-01-15T21:11:38.235Z,94.78
2018-01-15T21:14:05.838Z,94.56
2018-01-15T21:16:33.473Z,94.79
2018-01-15T21:19:01.102Z,94.72
2018-01-15T21:21:28.734Z,94.42
2018-01-15T21:23:56.370Z,94.68
2018-01-15T21:26:23.976Z,94.75
2018-01-15T21:28:51.607Z,95.48
2018-01-15T21:31:19.249Z,95.84
2018-01-15T21:33:46.880Z,95.58
2018-01-15T21:36:14.589Z,95.64
2018-01-15T21:38:42.220Z,96.07
2018-01-15T21:41:09.823Z,96.09
2018-01-15T21:43:37.484Z,96.61
2018-01-15T21:46:05.075Z,97.00
2018-01-15T21:48:32.703Z,96.73
2018-01-15T21:51:00.339Z,96.63
2018-01-15T21:53:27.976Z,97.20
2018-01-15T21:55:55.588Z,97.11
2018-01-15T21:58:23.221Z,97.07
2018-01-15T22:00:50.970Z,97.41
2018-01-15T22:03:18.597Z,97.41
2018-01-15T22:05:46.189Z,97.75
2018-01-15T22:08:13.769Z,97.99
2018-01-15T22:10:41.374Z,98.01
2018-01-15T22:13:09.158Z,97.75
2018-01-15T22:15:36.743Z,97.55
2018-01-15T22:18:04.415Z,97.55
2018-01-15T22:20:32.024Z,97.67
2018-01-15T22:22:59.657Z,98.04
2018-01-15T22:25:27.253Z,98.24
2018-01-15T22:27:54.858Z,98.29
2018-01-15T22:30:22.474Z,98.33
2018-01-15T22:32:50.077Z,98.40
2018-01-15T22:35:17.673Z,98.25
2018-01-15T22:37:45.459Z,98.04
2018-01-15T22:40:13.050Z,98.22
2018-01-15T22:42:40.652Z,98.37
2018-01-15T22:45:08.241Z,98.49
2018-01-15T22:47:35.851Z,98.43
2018-01-15T22:50:03.450Z,98.88
2018-01-15T22:52:31.091Z,99.52
2018-01-15T22:54:58.721Z,100.00
2018-01-15T22:57:26.321Z,100.00
2018-01-15T22:59:53.982Z,100.00
2018-01-15T23:02:21.605Z,100.00
2018-01-15T23:04:49.194Z,100.00
2018-01-15T23:07:16.819Z,100.00
2018-01-15T23:09:44.439Z,100.00
2018-01-15T23:12:12.077Z,100.00
2018-01-15T23:14:39.698Z,100.00
2018-01-15T23:17:07.406Z,100.00
2018-01-15T23:19:35.005Z,100.00
2018-01-15T23:22:02.626Z,100.00
2018-01-15T23:24:30.216Z,100.00
2018-01-15T23:26:57.850Z,99.48
2018-01-15T23:29:25.428Z,96.65
2018-01-15T23:31:53.069Z,95.53
2018-01-15T23:34:20.671Z,94.28
2018-01-15T23:36:48.334Z,93.53
2018-01-15T23:39:15.921Z,93.34
2018-01-15T23:41:43.539Z,92.95
2018-01-15T23:44:11.126Z,93.04
2018-01-15T23:46:38.742Z,93.11
2018-01-15T23:49:06.386Z,93.26
2018-01-15T23:51:34.006Z,91.95
2018-01-15T23:54:01.598Z,91.81
2018-01-15T23:56:29.327Z,91.49
2018-01-15T23:58:56.937Z,91.59
